sensor_id;sensor_type;location;lat;lon;timestamp;pressure;altitude;pressure_sealevel;temperature;humidity
18749;BME280;9503;53.560;10.246;2023-08-21T00:00:14;101588.63;;;22.37;78.55
18749;BME280;9503;53.560;10.246;2023-08-21T00:02:42;101580.78;;;22.37;78.36
18749;BME280;9503;53.560;10.246;2023-08-21T00:05:09;101577.22;;;22.32;78.56
18749;BME280;9503;53.560;10.246;2023-08-21T00:07:36;101574.53;;;22.26;78.66
18749;BME280;9503;53.560;10.246;2023-08-21T00:10:03;101577.22;;;22.32;78.45
18749;BME280;9503;53.560;10.246;2023-08-21T00:12:29;101575.38;;;22.25;78.28
18749;BME280;9503;53.560;10.246;2023-08-21T00:14:57;101583.16;;;22.19;78.08
18749;BME280;9503;53.560;10.246;2023-08-21T00:17:24;101579.72;;;22.23;78.06
18749;BME280;9503;53.560;10.246;2023-08-21T00:19:52;101575.59;;;22.40;77.31
18749;BME280;9503;53.560;10.246;2023-08-21T00:22:18;101574.44;;;22.20;77.89
18749;BME280;9503;53.560;10.246;2023-08-21T00:24:45;101581.44;;;22.22;77.76
18749;BME280;9503;53.560;10.246;2023-08-21T00:27:11;101585.53;;;22.06;78.03
18749;BME280;9503;53.560;10.246;2023-08-21T00:29:38;101583.72;;;22.02;78.42
18749;BME280;9503;53.560;10.246;2023-08-21T00:32:05;101583.72;;;22.02;78.36
18749;BME280;9503;53.560;10.246;2023-08-21T00:34:32;101583.69;;;21.98;78.13
18749;BME280;9503;53.560;10.246;2023-08-21T00:37:00;101581.00;;;21.95;78.14
18749;BME280;9503;53.560;10.246;2023-08-21T00:39:27;101582.69;;;21.91;78.57
18749;BME280;9503;53.560;10.246;2023-08-21T00:41:53;101577.50;;;21.93;78.48
18749;BME280;9503;53.560;10.246;2023-08-21T00:44:20;101583.56;;;21.92;78.74
18749;BME280;9503;53.560;10.246;2023-08-21T00:46:47;101574.91;;;21.94;78.74
18749;BME280;9503;53.560;10.246;2023-08-21T00:49:14;101579.38;;;22.03;78.17
18749;BME280;9503;53.560;10.246;2023-08-21T00:51:40;101571.41;;;21.94;78.38
18749;BME280;9503;53.560;10.246;2023-08-21T00:54:09;101575.72;;;21.90;77.97
18749;BME280;9503;53.560;10.246;2023-08-21T00:56:35;101574.13;;;22.00;77.65
18749;BME280;9503;53.560;10.246;2023-08-21T00:59:02;101574.84;;;21.90;77.76
18749;BME280;9503;53.560;10.246;2023-08-21T01:01:29;101579.88;;;21.79;78.24
18749;BME280;9503;53.560;10.246;2023-08-21T01:03:56;101579.84;;;21.76;78.50
18749;BME280;9503;53.560;10.246;2023-08-21T01:06:23;101580.72;;;21.76;78.25
18749;BME280;9503;53.560;10.246;2023-08-21T01:08:57;101585.88;;;21.73;78.19
18749;BME280;9503;53.560;10.246;2023-08-21T01:11:34;101581.50;;;21.72;78.17
18749;BME280;9503;53.560;10.246;2023-08-21T01:14:07;101581.59;;;21.77;77.87
18749;BME280;9503;53.560;10.246;2023-08-21T01:16:37;101580.53;;;21.64;78.56
18749;BME280;9503;53.560;10.246;2023-08-21T01:19:10;101574.41;;;21.62;78.46
18749;BME280;9503;53.560;10.246;2023-08-21T01:21:41;101576.03;;;21.57;78.45
18749;BME280;9503;53.560;10.246;2023-08-21T01:24:09;101589.94;;;21.55;78.45
18749;BME280;9503;53.560;10.246;2023-08-21T01:26:36;101589.91;;;21.53;78.57
18749;BME280;9503;53.560;10.246;2023-08-21T01:29:02;101588.09;;;21.49;78.34
18749;BME280;9503;53.560;10.246;2023-08-21T01:31:31;101585.38;;;21.44;78.23
18749;BME280;9503;53.560;10.246;2023-08-21T01:34:02;101589.72;;;21.42;78.45
18749;BME280;9503;53.560;10.246;2023-08-21T01:36:30;101585.34;;;21.40;78.73
18749;BME280;9503;53.560;10.246;2023-08-21T01:38:57;101587.97;;;21.41;78.69
18749;BME280;9503;53.560;10.246;2023-08-21T01:41:25;101591.47;;;21.43;78.78
18749;BME280;9503;53.560;10.246;2023-08-21T01:43:52;101591.44;;;21.42;78.27
18749;BME280;9503;53.560;10.246;2023-08-21T01:46:19;101593.19;;;21.41;78.21
18749;BME280;9503;53.560;10.246;2023-08-21T01:48:46;101597.44;;;21.36;78.70
18749;BME280;9503;53.560;10.246;2023-08-21T01:51:12;101590.44;;;21.34;78.52
18749;BME280;9503;53.560;10.246;2023-08-21T01:53:39;101592.53;;;21.53;77.86
18749;BME280;9503;53.560;10.246;2023-08-21T01:56:06;101592.59;;;21.58;77.48
18749;BME280;9503;53.560;10.246;2023-08-21T01:58:34;101591.28;;;21.31;78.20
18749;BME280;9503;53.560;10.246;2023-08-21T02:01:01;101589.56;;;21.33;78.31
18749;BME280;9503;53.560;10.246;2023-08-21T02:03:28;101592.88;;;21.26;78.93
18749;BME280;9503;53.560;10.246;2023-08-21T02:05:56;101586.06;;;21.31;79.08
18749;BME280;9503;53.560;10.246;2023-08-21T02:08:30;101586.22;;;21.40;78.20
18749;BME280;9503;53.560;10.246;2023-08-21T02:10:57;101581.28;;;21.57;78.04
18749;BME280;9503;53.560;10.246;2023-08-21T02:13:23;101583.06;;;21.60;77.44
18749;BME280;9503;53.560;10.246;2023-08-21T02:15:52;101579.44;;;21.51;77.81
18749;BME280;9503;53.560;10.246;2023-08-21T02:18:18;101582.09;;;21.53;78.10
18749;BME280;9503;53.560;10.246;2023-08-21T02:20:46;101586.34;;;21.48;78.22
18749;BME280;9503;53.560;10.246;2023-08-21T02:23:13;101588.91;;;21.45;77.71
18749;BME280;9503;53.560;10.246;2023-08-21T02:25:41;101587.91;;;21.38;77.82
18749;BME280;9503;53.560;10.246;2023-08-21T02:28:07;101591.38;;;21.37;77.55
18749;BME280;9503;53.560;10.246;2023-08-21T02:30:34;101586.06;;;21.33;77.40
18749;BME280;9503;53.560;10.246;2023-08-21T02:33:02;101585.19;;;21.31;77.17
18749;BME280;9503;53.560;10.246;2023-08-21T02:35:29;101595.75;;;21.40;76.79
18749;BME280;9503;53.560;10.246;2023-08-21T02:37:56;101595.47;;;21.24;77.77
18749;BME280;9503;53.560;10.246;2023-08-21T02:40:22;101591.28;;;21.31;77.75
18749;BME280;9503;53.560;10.246;2023-08-21T02:42:49;101594.78;;;21.33;77.49
18749;BME280;9503;53.560;10.246;2023-08-21T02:45:16;101602.66;;;21.36;77.63
18749;BME280;9503;53.560;10.246;2023-08-21T02:47:44;101604.44;;;21.37;77.35
18749;BME280;9503;53.560;10.246;2023-08-21T02:50:15;101601.75;;;21.34;77.67
18749;BME280;9503;53.560;10.246;2023-08-21T02:52:42;101604.44;;;21.39;77.41
18749;BME280;9503;53.560;10.246;2023-08-21T02:55:09;101599.16;;;21.36;77.26
18749;BME280;9503;53.560;10.246;2023-08-21T02:57:35;101593.03;;;21.32;77.37
18749;BME280;9503;53.560;10.246;2023-08-21T03:00:03;101598.34;;;21.38;77.08
18749;BME280;9503;53.560;10.246;2023-08-21T03:02:29;101596.50;;;21.33;77.32
18749;BME280;9503;53.560;10.246;2023-08-21T03:04:56;101595.59;;;21.31;77.77
18749;BME280;9503;53.560;10.246;2023-08-21T03:07:24;101602.50;;;21.29;77.77
18749;BME280;9503;53.560;10.246;2023-08-21T03:09:58;101603.28;;;21.24;77.69
18749;BME280;9503;53.560;10.246;2023-08-21T03:12:25;101605.03;;;21.25;77.24
18749;BME280;9503;53.560;10.246;2023-08-21T03:14:51;101603.38;;;21.29;77.50
18749;BME280;9503;53.560;10.246;2023-08-21T03:17:18;101605.03;;;21.24;76.95
18749;BME280;9503;53.560;10.246;2023-08-21T03:19:45;101606.78;;;21.25;77.11
18749;BME280;9503;53.560;10.246;2023-08-21T03:22:11;101597.97;;;21.20;76.97
18749;BME280;9503;53.560;10.246;2023-08-21T03:24:40;101613.59;;;21.18;77.41
18749;BME280;9503;53.560;10.246;2023-08-21T03:27:07;101606.53;;;21.13;77.39
18749;BME280;9503;53.560;10.246;2023-08-21T03:29:34;101607.22;;;20.60;79.34
18749;BME280;9503;53.560;10.246;2023-08-21T03:32:00;101607.75;;;20.44;80.43
18749;BME280;9503;53.560;10.246;2023-08-21T03:37:32;101609.28;;;20.37;80.81
18749;BME280;9503;53.560;10.246;2023-08-21T03:40:02;101596.16;;;20.33;80.49
18749;BME280;9503;53.560;10.246;2023-08-21T03:42:29;101605.56;;;20.26;80.24
18749;BME280;9503;53.560;10.246;2023-08-21T03:44:55;101602.00;;;20.21;81.04
18749;BME280;9503;53.560;10.246;2023-08-21T03:47:22;101602.88;;;20.22;81.94
18749;BME280;9503;53.560;10.246;2023-08-21T03:49:49;101604.66;;;20.24;81.68
18749;BME280;9503;53.560;10.246;2023-08-21T03:52:15;101602.06;;;20.26;81.46
18749;BME280;9503;53.560;10.246;2023-08-21T03:54:42;101601.13;;;20.22;81.24
18749;BME280;9503;53.560;10.246;2023-08-21T03:57:10;101602.91;;;20.25;81.03
18749;BME280;9503;53.560;10.246;2023-08-21T03:59:36;101609.00;;;20.25;80.84
18749;BME280;9503;53.560;10.246;2023-08-21T04:02:03;101606.31;;;20.21;80.56
18749;BME280;9503;53.560;10.246;2023-08-21T04:04:30;101608.09;;;20.23;80.46
18749;BME280;9503;53.560;10.246;2023-08-21T04:06:58;101615.00;;;20.21;80.67
18749;BME280;9503;53.560;10.246;2023-08-21T04:09:24;101614.06;;;20.19;80.60
18749;BME280;9503;53.560;10.246;2023-08-21T04:11:51;101609.72;;;20.18;81.14
18749;BME280;9503;53.560;10.246;2023-08-21T04:14:19;101612.47;;;20.24;81.09
18749;BME280;9503;53.560;10.246;2023-08-21T04:16:46;101614.38;;;20.33;81.01
18749;BME280;9503;53.560;10.246;2023-08-21T04:19:12;101610.88;;;20.31;81.46
18749;BME280;9503;53.560;10.246;2023-08-21T04:21:39;101606.56;;;20.33;81.33
18749;BME280;9503;53.560;10.246;2023-08-21T04:24:06;101615.34;;;20.36;81.34
18749;BME280;9503;53.560;10.246;2023-08-21T04:26:33;101610.19;;;20.39;81.15
18749;BME280;9503;53.560;10.246;2023-08-21T04:29:00;101612.00;;;20.42;81.24
18749;BME280;9503;53.560;10.246;2023-08-21T04:31:28;101612.81;;;20.41;81.82
18749;BME280;9503;53.560;10.246;2023-08-21T04:37:28;101620.97;;;20.53;81.38
18749;BME280;9503;53.560;10.246;2023-08-21T04:39:54;101617.75;;;20.65;81.74
18749;BME280;9503;53.560;10.246;2023-08-21T04:42:21;101615.31;;;20.73;81.71
18749;BME280;9503;53.560;10.246;2023-08-21T04:44:48;101613.78;;;20.84;82.16
18749;BME280;9503;53.560;10.246;2023-08-21T04:47:24;101618.97;;;20.82;82.27
18749;BME280;9503;53.560;10.246;2023-08-21T04:49:52;101625.31;;;20.95;82.27
18749;BME280;9503;53.560;10.246;2023-08-21T04:52:19;101621.53;;;21.24;81.70
18749;BME280;9503;53.560;10.246;2023-08-21T04:54:46;101623.50;;;21.35;82.09
18749;BME280;9503;53.560;10.246;2023-08-21T04:57:13;101629.84;;;21.49;82.38
18749;BME280;9503;53.560;10.246;2023-08-21T04:59:40;101625.75;;;21.63;82.84
18749;BME280;9503;53.560;10.246;2023-08-21T05:02:07;101629.63;;;21.87;82.99
18749;BME280;9503;53.560;10.246;2023-08-21T05:04:36;101634.09;;;21.95;83.10
18749;BME280;9503;53.560;10.246;2023-08-21T05:07:03;101633.19;;;21.92;83.00
18749;BME280;9503;53.560;10.246;2023-08-21T05:09:29;101631.69;;;22.07;82.34
18749;BME280;9503;53.560;10.246;2023-08-21T05:11:56;101633.34;;;22.02;82.58
18749;BME280;9503;53.560;10.246;2023-08-21T05:14:23;101632.72;;;22.16;82.71
18749;BME280;9503;53.560;10.246;2023-08-21T05:16:50;101635.63;;;22.34;83.07
18749;BME280;9503;53.560;10.246;2023-08-21T05:19:17;101628.81;;;22.47;82.88
18749;BME280;9503;53.560;10.246;2023-08-21T05:21:45;101632.44;;;22.56;82.75
18749;BME280;9503;53.560;10.246;2023-08-21T05:24:12;101630.03;;;22.72;82.79
18749;BME280;9503;53.560;10.246;2023-08-21T05:26:39;101634.41;;;22.73;82.89
18749;BME280;9503;53.560;10.246;2023-08-21T05:29:06;101633.72;;;22.86;83.45
18749;BME280;9503;53.560;10.246;2023-08-21T05:31:32;101643.44;;;22.98;83.30
18749;BME280;9503;53.560;10.246;2023-08-21T05:33:59;101645.31;;;23.06;82.36
18749;BME280;9503;53.560;10.246;2023-08-21T05:36:26;101637.59;;;23.20;82.58
18749;BME280;9503;53.560;10.246;2023-08-21T05:38:56;101645.13;;;23.71;86.54
18749;BME280;9503;53.560;10.246;2023-08-21T05:41:22;101633.59;;;24.70;84.12
18749;BME280;9503;53.560;10.246;2023-08-21T05:43:49;101640.88;;;26.14;78.95
18749;BME280;9503;53.560;10.246;2023-08-21T05:46:16;101649.00;;;27.74;74.81
18749;BME280;9503;53.560;10.246;2023-08-21T05:48:42;101649.63;;;28.85;68.89
18749;BME280;9503;53.560;10.246;2023-08-21T05:51:09;101654.63;;;29.71;64.59
18749;BME280;9503;53.560;10.246;2023-08-21T05:53:36;101659.38;;;30.51;61.11
18749;BME280;9503;53.560;10.246;2023-08-21T05:56:04;101656.66;;;30.99;59.60
18749;BME280;9503;53.560;10.246;2023-08-21T05:58:30;101663.84;;;31.71;58.23
18749;BME280;9503;53.560;10.246;2023-08-21T06:00:58;101665.84;;;32.31;56.54
18749;BME280;9503;53.560;10.246;2023-08-21T06:03:25;101674.00;;;32.58;53.33
18749;BME280;9503;53.560;10.246;2023-08-21T06:05:51;101673.13;;;32.23;55.36
18749;BME280;9503;53.560;10.246;2023-08-21T06:08:18;101670.53;;;31.50;55.57
18749;BME280;9503;53.560;10.246;2023-08-21T06:10:45;101669.00;;;29.55;59.16
18749;BME280;9503;53.560;10.246;2023-08-21T06:13:13;101667.28;;;28.83;61.91
18749;BME280;9503;53.560;10.246;2023-08-21T06:15:43;101663.56;;;28.21;63.20
18749;BME280;9503;53.560;10.246;2023-08-21T06:18:10;101661.53;;;27.38;65.30
18749;BME280;9503;53.560;10.246;2023-08-21T06:20:37;101660.00;;;26.91;67.40
18749;BME280;9503;53.560;10.246;2023-08-21T06:23:03;101658.22;;;26.93;67.49
18749;BME280;9503;53.560;10.246;2023-08-21T06:25:30;101660.97;;;26.69;68.28
18749;BME280;9503;53.560;10.246;2023-08-21T06:27:58;101657.41;;;26.84;67.54
18749;BME280;9503;53.560;10.246;2023-08-21T06:30:27;101660.16;;;26.18;68.96
18749;BME280;9503;53.560;10.246;2023-08-21T06:32:53;101660.16;;;26.18;69.93
18749;BME280;9503;53.560;10.246;2023-08-21T06:35:20;101669.81;;;26.07;70.46
18749;BME280;9503;53.560;10.246;2023-08-21T06:37:47;101668.94;;;25.91;71.03
18749;BME280;9503;53.560;10.246;2023-08-21T06:40:13;101665.44;;;26.00;70.52
18749;BME280;9503;53.560;10.246;2023-08-21T06:42:40;101669.78;;;26.59;69.00
18749;BME280;9503;53.560;10.246;2023-08-21T06:45:07;101675.94;;;26.12;70.30
18749;BME280;9503;53.560;10.246;2023-08-21T06:47:36;101671.56;;;26.12;70.05
18749;BME280;9503;53.560;10.246;2023-08-21T06:50:02;101675.06;;;26.11;70.76
18749;BME280;9503;53.560;10.246;2023-08-21T06:52:29;101679.44;;;25.99;70.42
18749;BME280;9503;53.560;10.246;2023-08-21T06:54:56;101672.47;;;25.85;71.37
18749;BME280;9503;53.560;10.246;2023-08-21T06:57:23;101668.88;;;25.47;73.04
18749;BME280;9503;53.560;10.246;2023-08-21T06:59:49;101674.22;;;25.96;70.89
18749;BME280;9503;53.560;10.246;2023-08-21T07:02:16;101682.88;;;25.55;72.64
18749;BME280;9503;53.560;10.246;2023-08-21T07:04:44;101677.72;;;25.93;70.84
18749;BME280;9503;53.560;10.246;2023-08-21T07:07:11;101674.22;;;26.00;69.43
18749;BME280;9503;53.560;10.246;2023-08-21T07:09:37;101672.44;;;26.04;69.42
18749;BME280;9503;53.560;10.246;2023-08-21T07:12:05;101680.31;;;26.27;68.92
18749;BME280;9503;53.560;10.246;2023-08-21T07:14:32;101680.31;;;26.14;68.18
18749;BME280;9503;53.560;10.246;2023-08-21T07:16:58;101669.81;;;26.22;67.97
18749;BME280;9503;53.560;10.246;2023-08-21T07:19:25;101672.44;;;26.04;69.79
18749;BME280;9503;53.560;10.246;2023-08-21T07:21:53;101674.19;;;26.43;67.61
18749;BME280;9503;53.560;10.246;2023-08-21T07:24:20;101671.59;;;26.02;68.22
18749;BME280;9503;53.560;10.246;2023-08-21T07:26:47;101671.53;;;26.28;67.13
18749;BME280;9503;53.560;10.246;2023-08-21T07:29:13;101674.16;;;26.60;67.11
18749;BME280;9503;53.560;10.246;2023-08-21T07:31:40;101675.06;;;26.47;66.75
18749;BME280;9503;53.560;10.246;2023-08-21T07:34:07;101668.06;;;26.18;66.99
18749;BME280;9503;53.560;10.246;2023-08-21T07:36:34;101676.78;;;26.29;66.94
18749;BME280;9503;53.560;10.246;2023-08-21T07:39:02;101674.22;;;25.86;67.24
18749;BME280;9503;53.560;10.246;2023-08-21T07:41:29;101682.97;;;26.01;67.21
18749;BME280;9503;53.560;10.246;2023-08-21T07:43:56;101678.56;;;26.21;66.04
18749;BME280;9503;53.560;10.246;2023-08-21T07:46:22;101680.34;;;25.93;66.32
18749;BME280;9503;53.560;10.246;2023-08-21T07:48:49;101675.94;;;26.04;66.61
18749;BME280;9503;53.560;10.246;2023-08-21T07:51:16;101674.16;;;26.35;65.63
18749;BME280;9503;53.560;10.246;2023-08-21T07:53:43;101675.00;;;26.69;65.67
18749;BME280;9503;53.560;10.246;2023-08-21T07:56:11;101681.97;;;26.83;64.69
18749;BME280;9503;53.560;10.246;2023-08-21T07:58:37;101675.88;;;26.75;63.63
18749;BME280;9503;53.560;10.246;2023-08-21T08:01:04;101675.88;;;26.65;64.16
18749;BME280;9503;53.560;10.246;2023-08-21T08:03:31;101675.81;;;26.84;63.60
18749;BME280;9503;53.560;10.246;2023-08-21T08:05:58;101675.78;;;27.05;63.90
18749;BME280;9503;53.560;10.246;2023-08-21T08:08:24;101677.59;;;26.72;64.26
18749;BME280;9503;53.560;10.246;2023-08-21T08:10:51;101668.84;;;26.69;62.58
18749;BME280;9503;53.560;10.246;2023-08-21T08:13:20;101675.75;;;27.00;62.40
18749;BME280;9503;53.560;10.246;2023-08-21T08:15:46;101675.72;;;27.10;63.09
18749;BME280;9503;53.560;10.246;2023-08-21T08:18:24;101675.00;;;26.69;63.34
18749;BME280;9503;53.560;10.246;2023-08-21T08:20:50;101675.72;;;27.13;61.97
18749;BME280;9503;53.560;10.246;2023-08-21T08:23:19;101681.00;;;27.08;60.15
18749;BME280;9503;53.560;10.246;2023-08-21T08:25:46;101670.53;;;26.87;60.22
18749;BME280;9503;53.560;10.246;2023-08-21T08:28:13;101674.97;;;26.82;60.66
18749;BME280;9503;53.560;10.246;2023-08-21T08:30:41;101676.78;;;26.60;62.53
18749;BME280;9503;53.560;10.246;2023-08-21T08:33:08;101672.25;;;26.95;61.20
18749;BME280;9503;53.560;10.246;2023-08-21T08:35:34;101675.81;;;26.88;60.67
18749;BME280;9503;53.560;10.246;2023-08-21T08:38:01;101681.03;;;26.93;60.91
18749;BME280;9503;53.560;10.246;2023-08-21T08:40:28;101673.13;;;26.94;61.00
18749;BME280;9503;53.560;10.246;2023-08-21T08:42:55;101673.19;;;26.82;60.42
18749;BME280;9503;53.560;10.246;2023-08-21T08:45:28;101672.25;;;26.95;60.49
18749;BME280;9503;53.560;10.246;2023-08-21T08:47:59;101672.16;;;27.21;60.17
18749;BME280;9503;53.560;10.246;2023-08-21T08:50:28;101679.84;;;27.57;59.52
18749;BME280;9503;53.560;10.246;2023-08-21T08:52:56;101675.63;;;27.33;58.93
18749;BME280;9503;53.560;10.246;2023-08-21T08:55:23;101680.69;;;27.65;59.84
18749;BME280;9503;53.560;10.246;2023-08-21T08:57:51;101680.69;;;27.69;58.54
18749;BME280;9503;53.560;10.246;2023-08-21T09:00:18;101681.75;;;27.36;59.29
18749;BME280;9503;53.560;10.246;2023-08-21T09:02:47;101678.88;;;27.73;58.30
18749;BME280;9503;53.560;10.246;2023-08-21T09:05:15;101678.69;;;28.00;58.62
18749;BME280;9503;53.560;10.246;2023-08-21T09:07:42;101678.47;;;28.22;57.83
18749;BME280;9503;53.560;10.246;2023-08-21T09:10:13;101683.38;;;27.56;57.93
18749;BME280;9503;53.560;10.246;2023-08-21T09:12:40;101685.00;;;27.79;57.74
18749;BME280;9503;53.560;10.246;2023-08-21T09:15:07;101678.88;;;27.74;58.59
18749;BME280;9503;53.560;10.246;2023-08-21T09:17:34;101681.25;;;28.05;56.78
18749;BME280;9503;53.560;10.246;2023-08-21T09:20:04;101679.16;;;27.29;58.67
18749;BME280;9503;53.560;10.246;2023-08-21T09:22:32;101682.34;;;27.79;58.36
18749;BME280;9503;53.560;10.246;2023-08-21T09:25:03;101697.84;;;28.21;57.05
18749;BME280;9503;53.560;10.246;2023-08-21T09:27:32;101685.06;;;27.70;57.63
18749;BME280;9503;53.560;10.246;2023-08-21T09:30:00;101689.28;;;27.94;57.04
18749;BME280;9503;53.560;10.246;2023-08-21T09:32:29;101684.59;;;28.25;56.29
18749;BME280;9503;53.560;10.246;2023-08-21T09:34:56;101685.75;;;27.95;57.04
18749;BME280;9503;53.560;10.246;2023-08-21T09:37:28;101687.28;;;28.21;55.80
18749;BME280;9503;53.560;10.246;2023-08-21T09:40:00;101680.25;;;28.21;54.55
18749;BME280;9503;53.560;10.246;2023-08-21T09:42:29;101675.56;;;28.49;54.10
18749;BME280;9503;53.560;10.246;2023-08-21T09:44:56;101678.69;;;27.97;54.66
18749;BME280;9503;53.560;10.246;2023-08-21T09:47:23;101680.25;;;28.18;55.42
18749;BME280;9503;53.560;10.246;2023-08-21T09:49:53;101678.41;;;28.26;55.19
18749;BME280;9503;53.560;10.246;2023-08-21T09:52:20;101693.56;;;28.04;54.61
18749;BME280;9503;53.560;10.246;2023-08-21T09:54:47;101674.78;;;28.43;53.84
18749;BME280;9503;53.560;10.246;2023-08-21T09:57:16;101677.19;;;28.66;53.33
18749;BME280;9503;53.560;10.246;2023-08-21T09:59:43;101668.19;;;28.80;52.54
18749;BME280;9503;53.560;10.246;2023-08-21T10:02:10;101673.13;;;29.08;51.52
18749;BME280;9503;53.560;10.246;2023-08-21T10:04:39;101675.47;;;29.32;50.84
18749;BME280;9503;53.560;10.246;2023-08-21T10:07:07;101676.88;;;29.56;50.79
18749;BME280;9503;53.560;10.246;2023-08-21T10:09:35;101686.88;;;29.93;49.89
18749;BME280;9503;53.560;10.246;2023-08-21T10:12:02;101668.56;;;29.81;50.48
18749;BME280;9503;53.560;10.246;2023-08-21T10:14:31;101672.19;;;29.73;49.46
18749;BME280;9503;53.560;10.246;2023-08-21T10:16:58;101669.53;;;29.77;50.29
18749;BME280;9503;53.560;10.246;2023-08-21T10:19:30;101673.91;;;29.78;49.93
18749;BME280;9503;53.560;10.246;2023-08-21T10:21:57;101675.09;;;30.14;50.53
18749;BME280;9503;53.560;10.246;2023-08-21T10:24:33;101672.59;;;30.52;49.70
18749;BME280;9503;53.560;10.246;2023-08-21T10:27:00;101666.97;;;30.69;49.71
18749;BME280;9503;53.560;10.246;2023-08-21T10:29:27;101674.31;;;30.98;49.31
18749;BME280;9503;53.560;10.246;2023-08-21T10:32:05;101675.19;;;31.00;48.41
18749;BME280;9503;53.560;10.246;2023-08-21T10:34:34;101675.28;;;31.38;48.30
18749;BME280;9503;53.560;10.246;2023-08-21T10:37:04;101677.78;;;31.44;49.26
18749;BME280;9503;53.560;10.246;2023-08-21T10:39:31;101675.69;;;31.56;47.38
18749;BME280;9503;53.560;10.246;2023-08-21T10:42:01;101676.16;;;32.43;47.21
18749;BME280;9503;53.560;10.246;2023-08-21T10:44:37;101683.75;;;32.23;45.97
18749;BME280;9503;53.560;10.246;2023-08-21T10:47:15;101680.69;;;32.40;46.87
18749;BME280;9503;53.560;10.246;2023-08-21T10:49:43;101675.44;;;33.01;46.13
18749;BME280;9503;53.560;10.246;2023-08-21T10:52:10;101686.88;;;33.03;46.12
18749;BME280;9503;53.560;10.246;2023-08-21T10:54:48;101690.69;;;32.63;45.89
18749;BME280;9503;53.560;10.246;2023-08-21T10:57:15;101677.72;;;30.60;48.22
18749;BME280;9503;53.560;10.246;2023-08-21T10:59:55;101675.34;;;32.41;46.60
18749;BME280;9503;53.560;10.246;2023-08-21T11:02:26;101671.63;;;31.79;47.37
18749;BME280;9503;53.560;10.246;2023-08-21T11:04:54;101680.22;;;32.23;47.12
18749;BME280;9503;53.560;10.246;2023-08-21T11:07:22;101672.94;;;32.31;46.56
18749;BME280;9503;53.560;10.246;2023-08-21T11:09:49;101682.53;;;31.65;46.79
18749;BME280;9503;53.560;10.246;2023-08-21T11:12:18;101678.16;;;31.64;47.37
18749;BME280;9503;53.560;10.246;2023-08-21T11:14:45;101674.53;;;31.31;48.03
18749;BME280;9503;53.560;10.246;2023-08-21T11:17:12;101678.63;;;31.83;47.27
18749;BME280;9503;53.560;10.246;2023-08-21T11:19:41;101669.09;;;31.74;47.18
18749;BME280;9503;53.560;10.246;2023-08-21T11:22:09;101674.88;;;32.24;46.24
18749;BME280;9503;53.560;10.246;2023-08-21T11:24:40;101671.09;;;32.98;44.31
18749;BME280;9503;53.560;10.246;2023-08-21T11:27:08;101671.31;;;33.20;44.95
18749;BME280;9503;53.560;10.246;2023-08-21T11:29:38;101675.50;;;32.97;44.70
18749;BME280;9503;53.560;10.246;2023-08-21T11:32:09;101672.56;;;32.76;44.37
18749;BME280;9503;53.560;10.246;2023-08-21T11:34:36;101673.19;;;33.72;43.17
18749;BME280;9503;53.560;10.246;2023-08-21T11:37:05;101671.72;;;33.90;43.10
18749;BME280;9503;53.560;10.246;2023-08-21T11:39:45;101675.28;;;33.33;44.62
18749;BME280;9503;53.560;10.246;2023-08-21T11:42:12;101680.31;;;33.70;44.27
18749;BME280;9503;53.560;10.246;2023-08-21T11:44:43;101677.28;;;34.59;42.06
18749;BME280;9503;53.560;10.246;2023-08-21T11:47:11;101676.84;;;33.96;43.26
18749;BME280;9503;53.560;10.246;2023-08-21T11:49:39;101678.06;;;33.85;44.43
18749;BME280;9503;53.560;10.246;2023-08-21T11:52:08;101679.97;;;34.07;43.24
18749;BME280;9503;53.560;10.246;2023-08-21T11:54:35;101686.63;;;33.96;43.64
18749;BME280;9503;53.560;10.246;2023-08-21T11:57:06;101682.00;;;34.26;43.15
18749;BME280;9503;53.560;10.246;2023-08-21T11:59:33;101680.50;;;33.92;43.63
18749;BME280;9503;53.560;10.246;2023-08-21T12:02:00;101685.84;;;34.44;42.88
18749;BME280;9503;53.560;10.246;2023-08-21T12:04:27;101674.38;;;34.88;42.14
18749;BME280;9503;53.560;10.246;2023-08-21T12:06:53;101678.91;;;34.13;42.54
18749;BME280;9503;53.560;10.246;2023-08-21T12:09:21;101673.63;;;33.85;41.64
18749;BME280;9503;53.560;10.246;2023-08-21T12:11:48;101669.75;;;33.42;41.86
18749;BME280;9503;53.560;10.246;2023-08-21T12:14:15;101669.84;;;33.66;42.55
18749;BME280;9503;53.560;10.246;2023-08-21T12:16:42;101670.06;;;33.86;42.58
18749;BME280;9503;53.560;10.246;2023-08-21T12:19:09;101666.09;;;32.87;42.80
18749;BME280;9503;53.560;10.246;2023-08-21T12:21:37;101662.47;;;33.18;41.45
18749;BME280;9503;53.560;10.246;2023-08-21T12:24:04;101670.94;;;33.31;42.39
18749;BME280;9503;53.560;10.246;2023-08-21T12:26:33;101666.69;;;33.25;41.26
18749;BME280;9503;53.560;10.246;2023-08-21T12:29:00;101667.22;;;33.38;41.79
18749;BME280;9503;53.560;10.246;2023-08-21T12:31:28;101668.47;;;33.80;42.14
18749;BME280;9503;53.560;10.246;2023-08-21T12:33:55;101672.50;;;33.94;40.33
18749;BME280;9503;53.560;10.246;2023-08-21T12:36:22;101664.41;;;33.42;40.31
18749;BME280;9503;53.560;10.246;2023-08-21T12:38:48;101664.28;;;33.73;40.61
18749;BME280;9503;53.560;10.246;2023-08-21T12:41:15;101670.34;;;34.55;39.56
18749;BME280;9503;53.560;10.246;2023-08-21T12:43:43;101668.03;;;34.19;40.02
18749;BME280;9503;53.560;10.246;2023-08-21T12:46:10;101674.69;;;34.57;39.71
18749;BME280;9503;53.560;10.246;2023-08-21T12:48:36;101669.47;;;34.78;39.13
18749;BME280;9503;53.560;10.246;2023-08-21T12:51:03;101664.72;;;34.86;38.69
18749;BME280;9503;53.560;10.246;2023-08-21T12:53:30;101667.38;;;35.55;39.05
18749;BME280;9503;53.560;10.246;2023-08-21T12:55:57;101654.78;;;34.68;39.29
18749;BME280;9503;53.560;10.246;2023-08-21T12:58:24;101658.44;;;35.12;39.25